Time;durP1;ratioP1;P1;durP2;ratioP2;P2;SDS_P1;SDS_P2;PMS_P1;PMS_P2;Temp;Humidity;BMP_temperature;BMP_pressure;BME280_temperature;BME280_humidity;BME280_pressure;Samples;Min_cycle;Max_cycle;Signal;HPM_P1;HPM_P2
2023/10/16 00:00:32;;;;;;;1.5;1.3;;;;;;;;;;;;;
2023/10/16 00:02:39;;;;;;;1.7;1.4;;;;;;;;;;;;;
2023/10/16 00:05:08;;;;;;;1.8;1.5;;;;;;;;;;;;;
2023/10/16 00:07:30;;;;;;;1.6;1.5;;;;;;;;;;;;;
2023/10/16 00:09:55;;;;;;;1.7;1.5;;;;;;;;;;;;;
2023/10/16 00:12:20;;;;;;;1.6;1.3;;;;;;;;;;;;;
2023/10/16 00:14:47;;;;;;;1.5;1.3;;;;;;;;;;;;;
2023/10/16 00:17:14;;;;;;;2;1.4;;;;;;;;;;;;;
2023/10/16 00:19:39;;;;;;;1.4;1.3;;;;;;;;;;;;;
2023/10/16 00:22:10;;;;;;;1.3;1.2;;;;;;;;;;;;;
2023/10/16 00:24:32;;;;;;;1.4;1.1;;;;;;;;;;;;;
2023/10/16 00:26:54;;;;;;;1.5;1.1;;;;;;;;;;;;;
2023/10/16 00:29:22;;;;;;;1.8;1.1;;;;;;;;;;;;;
2023/10/16 00:31:46;;;;;;;1.3;1.1;;;;;;;;;;;;;
2023/10/16 00:34:19;;;;;;;1.4;1.2;;;;;;;;;;;;;
2023/10/16 00:36:38;;;;;;;1.4;1.2;;;;;;;;;;;;;
2023/10/16 00:39:12;;;;;;;1.5;1.3;;;;;;;;;;;;;
2023/10/16 00:41:30;;;;;;;1.6;1.3;;;;;;;;;;;;;
2023/10/16 00:43:58;;;;;;;1.9;1.2;;;;;;;;;;;;;
2023/10/16 00:46:23;;;;;;;2;1.1;;;;;;;;;;;;;
2023/10/16 00:48:49;;;;;;;0.8;0.8;;;;;;;;;;;;;
2023/10/16 00:51:16;;;;;;;0.9;0.7;;;;;;;;;;;;;
2023/10/16 00:53:41;;;;;;;1.4;0.8;;;;;;;;;;;;;
2023/10/16 00:56:08;;;;;;;1.1;0.9;;;;;;;;;;;;;
2023/10/16 00:58:36;;;;;;;0.8;0.8;;;;;;;;;;;;;
2023/10/16 01:01:04;;;;;;;1.3;0.8;;;;;;;;;;;;;
2023/10/16 01:03:31;;;;;;;0.7;0.7;;;;;;;;;;;;;
2023/10/16 01:05:52;;;;;;;1.2;0.9;;;;;;;;;;;;;
2023/10/16 01:08:18;;;;;;;0.9;0.9;;;;;;;;;;;;;
2023/10/16 01:10:47;;;;;;;0.8;0.8;;;;;;;;;;;;;
2023/10/16 01:13:12;;;;;;;1.2;0.9;;;;;;;;;;;;;
2023/10/16 01:15:33;;;;;;;2.2;0.9;;;;;;;;;;;;;
2023/10/16 01:17:59;;;;;;;1.1;0.8;;;;;;;;;;;;;
2023/10/16 01:20:25;;;;;;;1.9;1;;;;;;;;;;;;;
2023/10/16 01:22:52;;;;;;;1;1;;;;;;;;;;;;;
2023/10/16 01:25:17;;;;;;;0.7;0.7;;;;;;;;;;;;;
2023/10/16 01:27:42;;;;;;;1.1;0.9;;;;;;;;;;;;;
2023/10/16 01:30:07;;;;;;;0.8;0.8;;;;;;;;;;;;;
2023/10/16 01:32:32;;;;;;;0.7;0.7;;;;;;;;;;;;;
2023/10/16 01:34:59;;;;;;;1.4;0.9;;;;;;;;;;;;;
2023/10/16 01:37:23;;;;;;;0.6;0.6;;;;;;;;;;;;;
2023/10/16 01:39:53;;;;;;;1.3;1.1;;;;;;;;;;;;;
2023/10/16 01:42:15;;;;;;;1.4;0.8;;;;;;;;;;;;;
2023/10/16 01:44:40;;;;;;;1;0.9;;;;;;;;;;;;;
2023/10/16 01:47:10;;;;;;;0.9;0.8;;;;;;;;;;;;;
2023/10/16 01:49:29;;;;;;;0.8;0.8;;;;;;;;;;;;;
2023/10/16 01:51:57;;;;;;;1.2;1;;;;;;;;;;;;;
2023/10/16 01:54:22;;;;;;;0.8;0.8;;;;;;;;;;;;;
2023/10/16 01:56:49;;;;;;;0.8;0.8;;;;;;;;;;;;;
2023/10/16 01:59:14;;;;;;;1.1;1;;;;;;;;;;;;;
2023/10/16 02:01:41;;;;;;;2.1;1;;;;;;;;;;;;;
2023/10/16 02:04:06;;;;;;;0.9;0.9;;;;;;;;;;;;;
2023/10/16 02:06:31;;;;;;;1.1;1;;;;;;;;;;;;;
2023/10/16 02:08:56;;;;;;;1.1;1;;;;;;;;;;;;;
2023/10/16 02:11:22;;;;;;;1.1;1;;;;;;;;;;;;;
2023/10/16 02:13:47;;;;;;;1.1;1;;;;;;;;;;;;;
2023/10/16 02:16:13;;;;;;;1;0.8;;;;;;;;;;;;;
2023/10/16 02:18:40;;;;;;;0.8;0.7;;;;;;;;;;;;;
2023/10/16 02:21:06;;;;;;;1.4;0.9;;;;;;;;;;;;;
2023/10/16 02:23:32;;;;;;;0.8;0.8;;;;;;;;;;;;;
2023/10/16 02:26:00;;;;;;;1.2;0.8;;;;;;;;;;;;;
2023/10/16 02:28:25;;;;;;;0.7;0.7;;;;;;;;;;;;;
2023/10/16 02:30:51;;;;;;;1.1;0.9;;;;;;;;;;;;;
2023/10/16 02:33:18;;;;;;;1;0.9;;;;;;;;;;;;;
2023/10/16 02:35:42;;;;;;;1.1;1;;;;;;;;;;;;;
2023/10/16 02:38:11;;;;;;;1;0.9;;;;;;;;;;;;;
2023/10/16 02:40:35;;;;;;;1.2;1.1;;;;;;;;;;;;;
2023/10/16 02:43:04;;;;;;;0.8;0.8;;;;;;;;;;;;;
2023/10/16 02:45:27;;;;;;;1.1;1;;;;;;;;;;;;;
2023/10/16 02:47:54;;;;;;;1;0.9;;;;;;;;;;;;;
2023/10/16 02:50:19;;;;;;;1;0.9;;;;;;;;;;;;;
2023/10/16 02:52:45;;;;;;;1.3;1;;;;;;;;;;;;;
2023/10/16 02:55:11;;;;;;;1.1;1;;;;;;;;;;;;;
2023/10/16 02:57:36;;;;;;;1.2;0.9;;;;;;;;;;;;;
2023/10/16 03:00:00;;;;;;;2.4;1.1;;;;;;;;;;;;;
2023/10/16 03:02:28;;;;;;;0.9;0.9;;;;;;;;;;;;;
2023/10/16 03:04:56;;;;;;;1;0.9;;;;;;;;;;;;;
2023/10/16 03:07:20;;;;;;;1;0.9;;;;;;;;;;;;;
2023/10/16 03:09:46;;;;;;;2.1;1.1;;;;;;;;;;;;;
2023/10/16 03:12:10;;;;;;;1.2;1.1;;;;;;;;;;;;;
2023/10/16 03:14:45;;;;;;;1.2;1.1;;;;;;;;;;;;;
2023/10/16 03:17:08;;;;;;;1.9;1.2;;;;;;;;;;;;;
2023/10/16 03:19:28;;;;;;;1.1;1;;;;;;;;;;;;;
2023/10/16 03:21:53;;;;;;;0.8;0.8;;;;;;;;;;;;;
2023/10/16 03:24:19;;;;;;;1;0.9;;;;;;;;;;;;;
2023/10/16 03:26:50;;;;;;;1.3;0.9;;;;;;;;;;;;;
2023/10/16 03:29:11;;;;;;;1.3;1.1;;;;;;;;;;;;;
2023/10/16 03:31:39;;;;;;;1.2;1;;;;;;;;;;;;;
2023/10/16 03:34:01;;;;;;;1.6;1.1;;;;;;;;;;;;;
2023/10/16 03:36:28;;;;;;;1.3;1.2;;;;;;;;;;;;;
2023/10/16 03:38:53;;;;;;;1.3;1.2;;;;;;;;;;;;;
2023/10/16 03:41:28;;;;;;;1.8;1.1;;;;;;;;;;;;;
2023/10/16 03:43:44;;;;;;;1.2;1.1;;;;;;;;;;;;;
2023/10/16 03:46:10;;;;;;;1.4;1.3;;;;;;;;;;;;;
2023/10/16 03:48:35;;;;;;;1.1;1;;;;;;;;;;;;;
2023/10/16 03:51:00;;;;;;;2;1.1;;;;;;;;;;;;;
2023/10/16 03:53:26;;;;;;;1.2;0.9;;;;;;;;;;;;;
2023/10/16 03:55:51;;;;;;;1.4;0.9;;;;;;;;;;;;;
2023/10/16 03:58:16;;;;;;;2.2;0.9;;;;;;;;;;;;;
2023/10/16 04:02:35;;;;;;;1.3;1.2;;;;;;;5.6;86.11133;941.1558;;;;
2023/10/16 04:05:01;;;;;;;1.2;1;;;;;;;5.61;86.73438;941.131;;;;
2023/10/16 04:07:31;;;;;;;1.8;1.3;;;;;;;5.6;86.63086;941.1044;;;;
2023/10/16 04:10:11;;;;;;;1.2;1.1;;;;;;;5.43;86.76563;941.0554;;;;
2023/10/16 04:12:22;;;;;;;1.6;1.5;;;;;;;5.34;88.63965;941.1404;;;;
2023/10/16 04:14:50;;;;;;;1.4;1.3;;;;;;;5.37;88.25293;941.0823;;;;
2023/10/16 04:17:13;;;;;;;1.9;1.5;;;;;;;5.4;88.85645;941.0808;;;;
2023/10/16 04:19:52;;;;;;;1.3;1.2;;;;;;;5.23;87.96582;941.088;;;;
2023/10/16 04:22:16;;;;;;;2.5;1.2;;;;;;;5.32;88.0293;941.0286;;;;
2023/10/16 04:24:40;;;;;;;1.5;1.2;;;;;;;5.2;87.64258;941.0731;;;;
2023/10/16 04:27:29;;;;;;;1.3;1.2;;;;;;;5.22;87.10645;941.0363;;;;
2023/10/16 04:29:34;;;;;;;1.2;1.1;;;;;;;5.17;87.10645;941.0178;;;;
2023/10/16 04:31:58;;;;;;;1.8;1;;;;;;;4.97;87.80859;940.9717;;;;
2023/10/16 04:34:31;;;;;;;1.3;1.1;;;;;;;4.88;88.07324;940.9539;;;;
2023/10/16 04:37:23;;;;;;;1.2;1.1;;;;;;;4.97;87.80078;940.9539;;;;
2023/10/16 04:40:27;;;;;;;1.4;1.1;;;;;;;5.09;88.37305;940.9075;;;;
2023/10/16 04:42:49;;;;;;;1.5;1.2;;;;;;;5.1;87.53125;940.9236;;;;
2023/10/16 04:44:49;;;;;;;1.8;1.4;;;;;;;5.16;88.32227;940.8951;;;;
2023/10/16 04:47:00;;;;;;;1.4;1.3;;;;;;;5.22;89.13672;940.9408;;;;
2023/10/16 04:49:05;;;;;;;2.3;1.4;;;;;;;5.21;89.23438;940.9553;;;;
2023/10/16 04:51:38;;;;;;;1.5;1.2;;;;;;;5.19;90.25684;940.8887;;;;
2023/10/16 04:54:13;;;;;;;1.9;1.4;;;;;;;5.14;90.12109;940.9029;;;;
2023/10/16 04:56:30;;;;;;;1.9;1.5;;;;;;;5;90.73535;940.9137;;;;
2023/10/16 04:58:59;;;;;;;1.6;1.5;;;;;;;4.96;91.16504;940.9083;;;;
2023/10/16 05:01:55;;;;;;;1.8;1.6;;;;;;;5.09;90.83301;940.8965;;;;
2023/10/16 05:04:14;;;;;;;1.6;1.5;;;;;;;4.87;91.0127;940.8872;;;;
2023/10/16 05:06:14;;;;;;;2.4;1.6;;;;;;;5.02;90.94141;940.891;;;;
2023/10/16 05:08:59;;;;;;;1.8;1.7;;;;;;;5.1;90.6543;940.9039;;;;
2023/10/16 05:11:33;;;;;;;2.5;1.6;;;;;;;5.04;90.1582;940.8965;;;;
2023/10/16 05:13:54;;;;;;;1.9;1.5;;;;;;;5.1;90.34082;940.8511;;;;
2023/10/16 05:18:46;;;;;;;1.7;1.6;;;;;;;5.13;90.18652;940.8347;;;;
2023/10/16 05:21:19;;;;;;;1.5;1.4;;;;;;;5.21;89.4707;940.8242;;;;
2023/10/16 06:14:38;;;;;;;2.5;1.7;;;;;;;4.74;91.17676;940.6624;;;;
2023/10/16 06:17:15;;;;;;;2.4;2.2;;;;;;;4.95;90.47559;940.6602;;;;
2023/10/16 06:19:34;;;;;;;1.6;1.5;;;;;;;5.09;89.57031;940.6544;;;;
2023/10/16 06:22:06;;;;;;;2.1;1.4;;;;;;;5.07;89.10449;940.7175;;;;
2023/10/16 06:24:32;;;;;;;2.2;1.7;;;;;;;5.07;89.03516;940.6589;;;;
2023/10/16 06:26:59;;;;;;;2.3;1.5;;;;;;;4.93;90.00977;940.7051;;;;
2023/10/16 06:29:24;;;;;;;1.7;1.4;;;;;;;4.72;89.95605;940.72;;;;
2023/10/16 06:31:53;;;;;;;1.8;1.7;;;;;;;4.69;90.33008;940.6541;;;;
2023/10/16 06:34:15;;;;;;;2.3;1.5;;;;;;;4.78;90.38477;940.7496;;;;
2023/10/16 06:36:38;;;;;;;1.9;1.4;;;;;;;4.92;90.25781;940.7555;;;;
2023/10/16 06:39:07;;;;;;;1.4;1.3;;;;;;;4.98;89.35645;940.7277;;;;
2023/10/16 06:41:33;;;;;;;2.1;1.6;;;;;;;4.76;89.54688;940.5628;;;;
2023/10/16 06:44:00;;;;;;;2.2;1.6;;;;;;;4.65;89.95215;940.6678;;;;
2023/10/16 06:46:26;;;;;;;1.9;1.6;;;;;;;4.8;89.83691;940.6312;;;;
2023/10/16 06:48:48;;;;;;;1.7;1.4;;;;;;;4.81;89.2998;940.6052;;;;
2023/10/16 06:51:25;;;;;;;1.3;1.2;;;;;;;4.88;89.36914;940.565;;;;
2023/10/16 06:53:46;;;;;;;1.8;1.4;;;;;;;4.67;88.9541;940.5659;;;;
2023/10/16 06:56:14;;;;;;;2;1.6;;;;;;;4.81;88.03613;940.538;;;;
2023/10/16 06:58:37;;;;;;;1.7;1.5;;;;;;;4.6;88.9502;940.5457;;;;
2023/10/16 07:01:06;;;;;;;1.6;1.5;;;;;;;4.61;89.37988;940.5126;;;;
2023/10/16 07:03:33;;;;;;;2.3;1.5;;;;;;;4.56;90.18066;940.5366;;;;
2023/10/16 07:06:05;;;;;;;2.4;1.7;;;;;;;4.92;89.11719;940.5139;;;;
2023/10/16 07:08:27;;;;;;;1.4;1.2;;;;;;;4.79;88.34766;940.5622;;;;
2023/10/16 07:11:03;;;;;;;1.7;1.5;;;;;;;4.9;87.6709;940.5583;;;;
2023/10/16 07:13:29;;;;;;;2.9;1.7;;;;;;;5;86.8916;940.493;;;;
2023/10/16 07:15:47;;;;;;;1.4;1.3;;;;;;;5.08;86.33301;940.6241;;;;
2023/10/16 07:18:14;;;;;;;1.3;1;;;;;;;5.11;86.74609;940.5919;;;;
2023/10/16 07:20:55;;;;;;;1.2;1.1;;;;;;;5.19;85.74609;940.5731;;;;
2023/10/16 07:23:10;;;;;;;2.1;1.3;;;;;;;5.31;85.625;940.4321;;;;
2023/10/16 07:25:37;;;;;;;2;1.1;;;;;;;5.55;84.64453;940.5207;;;;
2023/10/16 07:27:58;;;;;;;1.2;1.1;;;;;;;5.55;83.94531;940.5167;;;;
2023/10/16 07:30:23;;;;;;;1.7;1.2;;;;;;;5.77;83.66211;940.4892;;;;
2023/10/16 07:32:45;;;;;;;1.3;1.2;;;;;;;5.82;83.55762;940.4459;;;;
2023/10/16 07:35:21;;;;;;;1.2;1.1;;;;;;;5.95;82.2832;940.4255;;;;
2023/10/16 07:37:45;;;;;;;0.9;0.9;;;;;;;5.61;82.35645;940.4139;;;;
2023/10/16 07:40:25;;;;;;;1.1;1;;;;;;;5.83;82.5752;940.431;;;;
2023/10/16 07:42:48;;;;;;;1.1;1;;;;;;;5.88;82.0791;940.3711;;;;
2023/10/16 07:45:19;;;;;;;1.6;1.3;;;;;;;5.96;82.25098;940.3777;;;;
2023/10/16 07:47:48;;;;;;;1.6;1.4;;;;;;;5.72;82.58984;940.3611;;;;
2023/10/16 07:50:15;;;;;;;2.1;1.3;;;;;;;5.97;82.18652;940.3163;;;;
2023/10/16 07:52:42;;;;;;;1.5;1.3;;;;;;;6.24;81.0166;940.3011;;;;
2023/10/16 07:55:08;;;;;;;2;1.1;;;;;;;6.39;79.00977;940.3758;;;;
2023/10/16 07:57:32;;;;;;;1.4;1.1;;;;;;;6.64;77.70996;940.313;;;;
2023/10/16 08:00:13;;;;;;;1.8;1;;;;;;;6.92;77.02344;940.3119;;;;
2023/10/16 08:02:24;;;;;;;1.2;1.1;;;;;;;7.03;76.08008;940.2532;;;;
2023/10/16 08:04:51;;;;;;;1.3;0.9;;;;;;;6.97;76.05957;940.1984;;;;
2023/10/16 08:07:18;;;;;;;1.5;1;;;;;;;7.24;75.50684;940.209;;;;
2023/10/16 08:10:28;;;;;;;1.4;1.2;;;;;;;7.42;75.16406;940.1964;;;;
2023/10/16 08:12:18;;;;;;;1.6;1.3;;;;;;;7.43;74.58789;940.2949;;;;
2023/10/16 08:14:30;;;;;;;1.9;1.3;;;;;;;7.73;75.77539;940.1676;;;;
2023/10/16 08:17:04;;;;;;;2;1.3;;;;;;;8.13;72.73438;940.1707;;;;
2023/10/16 08:19:24;;;;;;;1.9;1.4;;;;;;;8.28;71.60156;940.0837;;;;
2023/10/16 08:21:54;;;;;;;1.9;1.1;;;;;;;8.43;70.85352;940.1183;;;;
2023/10/16 08:24:21;;;;;;;1.8;1.3;;;;;;;8.55;70.25879;940.1047;;;;
2023/10/16 08:26:47;;;;;;;1.2;0.9;;;;;;;8.64;69.26367;940.1046;;;;
2023/10/16 08:29:18;;;;;;;1.4;1;;;;;;;8.7;68.9082;940.1008;;;;
2023/10/16 08:31:34;;;;;;;3.2;1.7;;;;;;;9.08;68.47949;939.9855;;;;
2023/10/16 08:33:59;;;;;;;2.2;1.3;;;;;;;9.24;66.40918;940.067;;;;
2023/10/16 08:36:25;;;;;;;2.4;1.3;;;;;;;9.39;66.62695;940.0608;;;;
2023/10/16 08:38:54;;;;;;;1.3;1;;;;;;;9.5;66.50879;940.032;;;;
2023/10/16 08:41:16;;;;;;;1.1;1;;;;;;;9.54;65.05566;940.019;;;;
2023/10/16 08:43:55;;;;;;;2;0.9;;;;;;;9.34;64.78711;940.0442;;;;
2023/10/16 08:46:10;;;;;;;0.9;0.8;;;;;;;9.34;65.18359;940.0298;;;;
2023/10/16 08:48:31;;;;;;;0.9;0.9;;;;;;;9.52;68.04785;939.9861;;;;
2023/10/16 08:50:57;;;;;;;1.4;0.9;;;;;;;9.57;66.42676;940.0228;;;;
2023/10/16 08:53:32;;;;;;;1.1;0.7;;;;;;;9.83;64.79199;939.9033;;;;
2023/10/16 08:55:50;;;;;;;1.3;0.9;;;;;;;9.74;65.47363;939.9072;;;;
2023/10/16 08:58:15;;;;;;;1.8;0.9;;;;;;;9.93;66.06055;939.8777;;;;
2023/10/16 09:00:42;;;;;;;1.1;0.7;;;;;;;10.12;64.40137;939.8272;;;;
2023/10/16 09:03:10;;;;;;;2.6;0.8;;;;;;;10.15;64.72461;939.7711;;;;
2023/10/16 09:05:33;;;;;;;1;0.7;;;;;;;10.09;63.60938;939.7656;;;;
2023/10/16 09:08:01;;;;;;;0.9;0.7;;;;;;;10.17;64.6377;939.8184;;;;
2023/10/16 09:10:30;;;;;;;1.3;0.8;;;;;;;10.53;63.30859;939.803;;;;
2023/10/16 09:12:55;;;;;;;1.5;1.1;;;;;;;10.46;63.16309;939.7418;;;;
2023/10/16 09:15:24;;;;;;;1.5;0.7;;;;;;;10.73;62.57422;939.7444;;;;
2023/10/16 09:17:50;;;;;;;0.5;0.5;;;;;;;10.77;59.92871;939.6627;;;;
2023/10/16 09:20:18;;;;;;;1;0.9;;;;;;;10.48;60.37988;939.6122;;;;
2023/10/16 09:22:46;;;;;;;1.2;0.7;;;;;;;11.02;60.87793;939.5575;;;;
2023/10/16 09:25:15;;;;;;;1;0.7;;;;;;;11.29;58.91504;939.5347;;;;
2023/10/16 09:27:36;;;;;;;1.1;0.7;;;;;;;11.3;58.20703;939.5356;;;;
2023/10/16 09:30:14;;;;;;;0.7;0.7;;;;;;;11.34;56.14258;939.465;;;;
2023/10/16 09:32:39;;;;;;;0.7;0.6;;;;;;;11.27;58.04297;939.4118;;;;
2023/10/16 09:35:14;;;;;;;0.7;0.7;;;;;;;11.02;56.34082;939.4842;;;;
2023/10/16 09:37:40;;;;;;;1;0.9;;;;;;;11.11;57.50781;939.4086;;;;
2023/10/16 09:40:08;;;;;;;0.6;0.6;;;;;;;11.3;58.03516;939.4025;;;;
2023/10/16 09:42:34;;;;;;;0.7;0.7;;;;;;;11;55.50293;939.4311;;;;
2023/10/16 09:44:59;;;;;;;0.6;0.6;;;;;;;10.76;56.75195;939.4238;;;;
2023/10/16 09:47:30;;;;;;;1.1;0.8;;;;;;;11.02;58.55762;939.3472;;;;
2023/10/16 09:49:46;;;;;;;0.5;0.5;;;;;;;11.51;56.4043;939.4045;;;;
2023/10/16 09:52:13;;;;;;;0.6;0.6;;;;;;;11.8;52.8125;939.3823;;;;
2023/10/16 09:54:36;;;;;;;0.8;0.6;;;;;;;11.85;53.5752;939.3494;;;;
2023/10/16 09:57:07;;;;;;;0.9;0.7;;;;;;;11.71;56.99121;939.4221;;;;
2023/10/16 09:59:41;;;;;;;1.6;0.7;;;;;;;11.69;55.92285;939.343;;;;
2023/10/16 10:02:08;;;;;;;1.3;0.8;;;;;;;11.81;52.73242;939.2891;;;;
2023/10/16 10:04:33;;;;;;;2.3;0.9;;;;;;;12.02;60.42383;939.2974;;;;
2023/10/16 10:06:59;;;;;;;2.6;1;;;;;;;11.96;60.87305;939.3541;;;;
2023/10/16 10:09:41;;;;;;;1.2;1.1;;;;;;;11.83;62.25195;939.3206;;;;
2023/10/16 10:12:08;;;;;;;2.9;0.9;;;;;;;11.63;63.53906;939.3347;;;;
2023/10/16 10:14:28;;;;;;;2.3;1;;;;;;;11.59;61.85156;939.2935;;;;
2023/10/16 10:16:56;;;;;;;1.8;1;;;;;;;11.49;63.32422;939.3222;;;;
2023/10/16 10:19:23;;;;;;;1.1;0.8;;;;;;;11.63;62.72656;939.2828;;;;
2023/10/16 10:21:46;;;;;;;0.9;0.9;;;;;;;11.73;64.26465;939.3019;;;;
2023/10/16 10:24:15;;;;;;;1.2;0.9;;;;;;;11.39;62.51074;939.2805;;;;
2023/10/16 10:26:43;;;;;;;1.1;1;;;;;;;11.57;61.27734;939.2957;;;;
2023/10/16 10:29:16;;;;;;;1.4;0.9;;;;;;;11.57;63.96582;939.2797;;;;
2023/10/16 10:31:40;;;;;;;1.5;1;;;;;;;11.78;65.77148;939.1753;;;;
2023/10/16 10:34:13;;;;;;;2.4;1.2;;;;;;;12.05;61.30859;939.2623;;;;
2023/10/16 10:36:39;;;;;;;1.6;0.9;;;;;;;11.86;61.51172;939.2299;;;;
2023/10/16 10:39:01;;;;;;;1.2;0.8;;;;;;;11.84;60.9248;939.2465;;;;
2023/10/16 10:41:37;;;;;;;1.1;0.9;;;;;;;11.67;66.83105;939.1627;;;;
2023/10/16 10:44:08;;;;;;;1.5;1.1;;;;;;;11.61;67.35938;939.2061;;;;
2023/10/16 10:46:29;;;;;;;1.2;1;;;;;;;11.35;67.25;939.1981;;;;
2023/10/16 10:49:00;;;;;;;2.4;1.2;;;;;;;11.17;67.67969;939.1294;;;;
2023/10/16 10:51:35;;;;;;;1.3;1;;;;;;;11.51;66.54395;939.0624;;;;
2023/10/16 10:53:56;;;;;;;1.5;1;;;;;;;11.73;65.55859;939.0617;;;;
2023/10/16 10:56:22;;;;;;;1.3;1;;;;;;;11.7;65.68066;939.1038;;;;
2023/10/16 10:58:51;;;;;;;1.4;1;;;;;;;11.91;65.98535;939.12;;;;
2023/10/16 11:01:28;;;;;;;1.7;1;;;;;;;12.35;61.4668;939.0245;;;;
2023/10/16 11:03:47;;;;;;;2;1.2;;;;;;;12.13;64.1748;939.0057;;;;
2023/10/16 11:06:15;;;;;;;1.4;1.1;;;;;;;12.28;64.17285;938.9172;;;;
2023/10/16 11:08:41;;;;;;;1.3;1.1;;;;;;;12.42;62.03809;938.9164;;;;
2023/10/16 11:11:05;;;;;;;1.5;1.2;;;;;;;12.41;65.41016;938.9459;;;;
2023/10/16 11:13:32;;;;;;;2;1.2;;;;;;;12.66;63.56348;938.8709;;;;
2023/10/16 11:15:58;;;;;;;1.9;1.1;;;;;;;13.15;61.16699;938.8739;;;;
2023/10/16 11:18:22;;;;;;;2.1;1;;;;;;;13.09;62.80176;938.7579;;;;
2023/10/16 11:20:49;;;;;;;0.9;0.9;;;;;;;13.02;60.59766;938.8106;;;;
2023/10/16 11:23:14;;;;;;;2.5;1.4;;;;;;;13.21;61.03613;938.8142;;;;
2023/10/16 11:25:45;;;;;;;1.8;1.3;;;;;;;14.32;56.67871;938.7793;;;;
2023/10/16 11:28:08;;;;;;;2.2;1.2;;;;;;;15.94;52.59863;938.7247;;;;
2023/10/16 11:30:41;;;;;;;1.7;1;;;;;;;16.53;50.12305;938.6408;;;;
2023/10/16 11:33:04;;;;;;;1;0.8;;;;;;;18.59;47.47461;938.658;;;;
2023/10/16 11:35:34;;;;;;;1.6;1.2;;;;;;;19.58;43.76855;938.6328;;;;
2023/10/16 11:38:13;;;;;;;1.2;0.9;;;;;;;21;41.06836;938.5873;;;;
2023/10/16 11:40:39;;;;;;;1.6;1.1;;;;;;;21.19;38.43164;938.5508;;;;
2023/10/16 11:42:56;;;;;;;2.5;0.9;;;;;;;21.5;38.96094;938.5139;;;;
2023/10/16 11:45:20;;;;;;;2.1;0.9;;;;;;;20.59;40.14355;938.5276;;;;
2023/10/16 11:48:18;;;;;;;1.1;1;;;;;;;21.51;37.7793;938.464;;;;
2023/10/16 11:50:28;;;;;;;1.3;0.8;;;;;;;23.73;34.67383;938.4833;;;;
2023/10/16 11:52:46;;;;;;;1.4;0.9;;;;;;;24.36;32.50781;938.4203;;;;
2023/10/16 11:55:23;;;;;;;1.6;1.1;;;;;;;25.38;31.44824;938.343;;;;
2023/10/16 11:57:48;;;;;;;1;0.8;;;;;;;24.72;33.00586;938.3639;;;;
2023/10/16 12:00:15;;;;;;;1;0.8;;;;;;;25.09;30.71973;938.3596;;;;
2023/10/16 12:02:40;;;;;;;1.4;0.9;;;;;;;27.45;27.63086;938.2596;;;;
2023/10/16 12:05:05;;;;;;;2;0.9;;;;;;;26.97;28.12402;938.3175;;;;
2023/10/16 12:07:43;;;;;;;0.8;0.8;;;;;;;24.56;30.66016;938.2122;;;;
2023/10/16 12:10:05;;;;;;;1.1;0.7;;;;;;;24.16;31.64551;938.2711;;;;
2023/10/16 12:12:26;;;;;;;1;0.8;;;;;;;25.38;30.66992;938.2031;;;;
2023/10/16 12:14:53;;;;;;;1.6;0.9;;;;;;;25.69;29.1416;938.1295;;;;
2023/10/16 12:17:19;;;;;;;0.8;0.8;;;;;;;23.78;32.14844;938.1591;;;;
2023/10/16 12:19:45;;;;;;;1.6;0.8;;;;;;;24.47;31.71387;938.1342;;;;
2023/10/16 12:22:09;;;;;;;0.7;0.7;;;;;;;25.48;29.87305;938.012;;;;
2023/10/16 12:24:39;;;;;;;1.1;1;;;;;;;23.98;31.44434;938.0378;;;;
2023/10/16 12:27:04;;;;;;;1.2;1;;;;;;;23.34;33.55078;938.0477;;;;
2023/10/16 12:29:31;;;;;;;1.2;0.8;;;;;;;23.76;32.61719;938.0231;;;;
2023/10/16 12:32:00;;;;;;;1.8;1;;;;;;;23.65;31.7627;937.9277;;;;
2023/10/16 12:34:23;;;;;;;1.3;0.9;;;;;;;24.61;30.80469;937.9778;;;;
2023/10/16 12:36:57;;;;;;;1.7;1.4;;;;;;;25.86;29.02344;937.9446;;;;
2023/10/16 12:39:24;;;;;;;1.1;1;;;;;;;26.1;29.33496;937.9864;;;;
2023/10/16 12:41:46;;;;;;;1;0.8;;;;;;;25.76;28.91016;937.9263;;;;
2023/10/16 12:44:17;;;;;;;1.6;1.1;;;;;;;25.46;29.12695;937.9005;;;;
2023/10/16 12:46:43;;;;;;;0.8;0.8;;;;;;;24.77;30.96973;937.9392;;;;
2023/10/16 12:49:08;;;;;;;2.8;1.6;;;;;;;26.43;28.14844;937.9325;;;;
2023/10/16 12:51:38;;;;;;;2.1;1.1;;;;;;;25.72;29.58105;937.868;;;;
2023/10/16 12:54:06;;;;;;;1.7;0.9;;;;;;;25.24;30.36426;937.8506;;;;
2023/10/16 12:56:31;;;;;;;1.4;1;;;;;;;24.88;30.82324;937.8323;;;;
2023/10/16 12:58:57;;;;;;;1.2;1;;;;;;;26.37;28.37012;937.8225;;;;
2023/10/16 13:01:24;;;;;;;1.4;1;;;;;;;25.82;29.69434;937.7366;;;;
2023/10/16 13:03:49;;;;;;;1.2;1.1;;;;;;;26.63;28.44531;937.7486;;;;
2023/10/16 13:06:19;;;;;;;0.8;0.8;;;;;;;25.72;28.75391;937.7545;;;;
2023/10/16 13:08:47;;;;;;;1;0.8;;;;;;;26.3;28.15234;937.6548;;;;
2023/10/16 13:11:10;;;;;;;1.6;0.7;;;;;;;24.53;31.11816;937.6744;;;;
2023/10/16 13:13:35;;;;;;;1.2;0.9;;;;;;;25;30.64258;937.5499;;;;
2023/10/16 13:16:00;;;;;;;1.6;1;;;;;;;25.87;29.34277;937.5801;;;;
2023/10/16 13:18:36;;;;;;;1.2;0.9;;;;;;;26.66;28.63672;937.5799;;;;
2023/10/16 13:20:54;;;;;;;2;0.9;;;;;;;26.52;29.41016;937.6115;;;;
2023/10/16 13:23:18;;;;;;;1.3;1;;;;;;;25.52;29.48535;937.5513;;;;
2023/10/16 13:25:41;;;;;;;1.4;0.9;;;;;;;24.43;31.04004;937.5317;;;;
2023/10/16 13:28:07;;;;;;;1.4;1;;;;;;;26.76;28.63184;937.5714;;;;
2023/10/16 13:30:31;;;;;;;1;0.9;;;;;;;26.53;28.07227;937.4691;;;;
2023/10/16 13:33:00;;;;;;;1.4;0.9;;;;;;;25.54;30.39648;937.4067;;;;
2023/10/16 13:35:24;;;;;;;1;1;;;;;;;26.36;29.0791;937.4843;;;;
2023/10/16 13:40:38;;;;;;;1.1;0.9;;;;;;;26.56;28.52441;937.4175;;;;
2023/10/16 13:43:01;;;;;;;1.5;1.1;;;;;;;25.57;29.85547;937.4089;;;;
2023/10/16 13:45:25;;;;;;;1.5;0.9;;;;;;;25.7;29.52148;937.3809;;;;
2023/10/16 13:47:50;;;;;;;1.6;0.9;;;;;;;26.23;28.78711;937.3463;;;;
2023/10/16 13:50:24;;;;;;;0.9;0.8;;;;;;;26.14;28.35547;937.2938;;;;
2023/10/16 13:52:46;;;;;;;1;0.9;;;;;;;27.85;26.94336;937.3334;;;;
2023/10/16 13:55:20;;;;;;;2.6;0.9;;;;;;;28.26;26.08887;937.3597;;;;
2023/10/16 13:57:49;;;;;;;1.3;1;;;;;;;27.99;26.39355;937.3088;;;;
2023/10/16 14:00:31;;;;;;;1.1;0.9;;;;;;;26.06;28.59863;937.2932;;;;
2023/10/16 14:02:56;;;;;;;1.5;1.1;;;;;;;25.25;30.05762;937.3098;;;;
2023/10/16 14:05:22;;;;;;;1.7;0.9;;;;;;;25.65;29.64746;937.2481;;;;
2023/10/16 14:07:53;;;;;;;1;0.9;;;;;;;25.34;30.4541;937.2545;;;;
2023/10/16 14:10:15;;;;;;;1.2;0.9;;;;;;;24.88;29.9502;937.2679;;;;
2023/10/16 14:12:53;;;;;;;1.3;0.9;;;;;;;25.08;29.91699;937.2101;;;;
2023/10/16 14:15:19;;;;;;;1;0.9;;;;;;;25.99;29.6582;937.2371;;;;
2023/10/16 14:17:47;;;;;;;1.1;1;;;;;;;27.02;27.78223;937.2089;;;;
2023/10/16 14:20:34;;;;;;;1;0.9;;;;;;;25.45;29.9541;937.1897;;;;
2023/10/16 14:22:47;;;;;;;2;1.1;;;;;;;25.51;29.86328;937.2;;;;
2023/10/16 14:25:11;;;;;;;1.3;1.1;;;;;;;25.86;29.41406;937.1937;;;;
2023/10/16 14:27:31;;;;;;;1.3;1;;;;;;;23.98;31.75;937.1814;;;;
2023/10/16 14:30:00;;;;;;;1.7;1;;;;;;;23.53;32.5293;937.1666;;;;
2023/10/16 14:32:26;;;;;;;1.2;1.1;;;;;;;23.49;32.66797;937.1261;;;;
2023/10/16 14:34:56;;;;;;;0.7;0.7;;;;;;;23.4;33.28418;937.1638;;;;
2023/10/16 14:37:20;;;;;;;1.3;1;;;;;;;24.09;31.98145;937.1214;;;;
2023/10/16 14:39:51;;;;;;;1.8;1.1;;;;;;;23.61;32.62988;937.1472;;;;
2023/10/16 14:42:19;;;;;;;1.6;0.9;;;;;;;23.49;32.80957;937.0949;;;;
2023/10/16 14:44:45;;;;;;;1.1;1;;;;;;;24.03;32.17773;937.0531;;;;
2023/10/16 14:47:09;;;;;;;1.5;1;;;;;;;24.02;31.98828;937.0624;;;;
2023/10/16 14:49:36;;;;;;;1.4;1;;;;;;;24.76;30.96875;937.0151;;;;
2023/10/16 14:51:59;;;;;;;1.3;1.2;;;;;;;24.04;31.625;937.0497;;;;
2023/10/16 14:54:27;;;;;;;2.2;1.7;;;;;;;24.11;31.66504;937.0717;;;;
2023/10/16 14:56:52;;;;;;;3.2;2.6;;;;;;;22.88;33.59863;937.085;;;;
2023/10/16 14:59:38;;;;;;;1.8;1.5;;;;;;;23.13;33.04102;937.0672;;;;
2023/10/16 15:01:47;;;;;;;1.5;1;;;;;;;23.64;32.12598;937.004;;;;
2023/10/16 15:04:17;;;;;;;1.4;1.2;;;;;;;24.36;31.25879;936.9405;;;;
2023/10/16 15:06:46;;;;;;;1.3;1.2;;;;;;;23.66;31.64551;937.0508;;;;
2023/10/16 15:09:16;;;;;;;1.2;1.1;;;;;;;23.78;31.59473;937.0675;;;;
2023/10/16 15:11:40;;;;;;;2;1.3;;;;;;;23.14;32.50098;937.0985;;;;
2023/10/16 15:14:05;;;;;;;1.8;1.5;;;;;;;22.36;33.26563;937.0466;;;;
2023/10/16 15:16:29;;;;;;;1.7;1.2;;;;;;;23.02;32.69141;937.0723;;;;
2023/10/16 15:18:57;;;;;;;2;1.2;;;;;;;22.89;33.19922;936.9897;;;;
2023/10/16 15:21:22;;;;;;;1.4;0.8;;;;;;;22.05;33.83984;937.0694;;;;
2023/10/16 15:23:51;;;;;;;1.2;0.9;;;;;;;21.23;34.99512;937.0526;;;;
2023/10/16 15:26:17;;;;;;;1.7;1;;;;;;;19.66;37.50586;937.0742;;;;
2023/10/16 15:28:42;;;;;;;2;1.3;;;;;;;17.61;43.09863;937.1358;;;;
2023/10/16 15:31:11;;;;;;;1.6;1.1;;;;;;;15.98;45.93359;937.1453;;;;
2023/10/16 15:33:34;;;;;;;1.6;1.1;;;;;;;15.52;46.63672;937.2158;;;;
2023/10/16 15:36:00;;;;;;;1.3;1;;;;;;;14.47;49.71387;937.1785;;;;
2023/10/16 15:38:28;;;;;;;1.4;1;;;;;;;14.22;50.88477;937.226;;;;
2023/10/16 15:40:50;;;;;;;1.8;1;;;;;;;13.73;51.9082;937.1869;;;;
2023/10/16 15:43:26;;;;;;;2;1.2;;;;;;;13.16;53.59668;937.2109;;;;
2023/10/16 15:45:57;;;;;;;1.6;1.2;;;;;;;13.12;53.71973;937.2773;;;;
2023/10/16 15:48:21;;;;;;;1.8;1.3;;;;;;;12.73;54.84082;937.2189;;;;
2023/10/16 15:50:48;;;;;;;2.2;1.3;;;;;;;12.34;56.84473;937.2526;;;;
2023/10/16 15:53:21;;;;;;;2.8;1.3;;;;;;;12.13;58.02148;937.2856;;;;
2023/10/16 15:55:46;;;;;;;3.2;2.3;;;;;;;11.99;58.32227;937.3536;;;;
2023/10/16 15:58:07;;;;;;;6.4;4.3;;;;;;;11.43;60.04297;937.3405;;;;
2023/10/16 16:00:37;;;;;;;2.1;1.5;;;;;;;11.62;59.93164;937.3471;;;;
2023/10/16 16:02:58;;;;;;;2.6;2;;;;;;;11.65;59.70801;937.3631;;;;
2023/10/16 16:05:30;;;;;;;16.2;8.9;;;;;;;11.57;60.21191;937.353;;;;
2023/10/16 16:08:00;;;;;;;34.1;15.4;;;;;;;11.33;61.38965;937.476;;;;
2023/10/16 16:10:33;;;;;;;15.2;6.6;;;;;;;11.34;61.7002;937.4736;;;;
2023/10/16 16:13:00;;;;;;;10.1;5.4;;;;;;;11.29;62.19727;937.4526;;;;
2023/10/16 16:15:26;;;;;;;7.5;3.9;;;;;;;11.33;61.98535;937.4114;;;;
2023/10/16 16:17:50;;;;;;;21.6;10.1;;;;;;;11.09;63.03809;937.5461;;;;
2023/10/16 16:20:18;;;;;;;4.2;2.4;;;;;;;10.81;64.6084;937.5787;;;;
2023/10/16 16:22:43;;;;;;;2;1.7;;;;;;;10.66;65.22461;937.6127;;;;
2023/10/16 16:25:12;;;;;;;3.2;2.2;;;;;;;10.56;66.00879;937.5964;;;;
2023/10/16 16:27:33;;;;;;;1.7;1.4;;;;;;;10.66;65.45313;937.713;;;;
2023/10/16 16:30:12;;;;;;;3;2.1;;;;;;;10.65;65.34863;937.6459;;;;
2023/10/16 16:32:40;;;;;;;105.9;44.9;;;;;;;10.19;66.92188;937.7092;;;;
2023/10/16 16:35:19;;;;;;;32.4;13.8;;;;;;;10.25;67.02344;937.7525;;;;
2023/10/16 16:37:48;;;;;;;19.8;10.1;;;;;;;10.28;66.76465;937.7671;;;;
2023/10/16 16:40:23;;;;;;;7.7;5.9;;;;;;;10.08;67.14453;937.7964;;;;